Time;durP1;ratioP1;P1;durP2;ratioP2;P2;SDS_P1;SDS_P2;PMS_P1;PMS_P2;Temp;Humidity;BMP_temperature;BMP_pressure;BME280_temperature;BME280_humidity;BME280_pressure;Samples;Min_cycle;Max_cycle;Signal;HPM_P1;HPM_P2
2022/01/26 00:06:24;;;;;;;69.07;34.25;;;2.20;99.90;;;;;;5073550;28;20202;-65
2022/01/26 00:08:51;;;;;;;66.95;34.05;;;2.30;99.90;;;;;;5073676;28;20267;-65
2022/01/26 00:11:18;;;;;;;66.57;34.92;;;2.20;99.90;;;;;;5073162;28;20302;-65
2022/01/26 00:13:46;;;;;;;72.15;36.80;;;2.10;99.90;;;;;;5073270;28;20664;-65
2022/01/26 00:16:24;;;;;;;67.95;32.20;;;1.90;99.90;;;;;;5073727;28;20202;-65
2022/01/26 00:18:53;;;;;;;81.68;37.20;;;1.90;99.90;;;;;;5073485;28;20221;-65
2022/01/26 00:21:28;;;;;;;78.20;37.35;;;1.90;99.90;;;;;;5073293;28;20202;-66
2022/01/26 00:29:30;;;;;;;76.30;36.80;;;1.90;99.90;;;;;;5061981;28;20591;-65
2022/01/26 00:33:06;;;;;;;76.38;36.03;;;1.90;99.90;;;;;;5075647;28;20217;-66
2022/01/26 00:40:27;;;;;;;73.82;35.15;;;2.10;99.90;;;;;;5075673;28;20262;-66
2022/01/26 00:42:58;;;;;;;67.38;34.17;;;2.20;99.90;;;;;;5075299;28;20265;-66
2022/01/26 00:45:33;;;;;;;66.28;33.80;;;2.30;99.90;;;;;;5075282;28;20197;-66
2022/01/26 00:48:03;;;;;;;74.43;33.95;;;2.50;99.90;;;;;;5075322;28;20210;-66
2022/01/26 00:50:30;;;;;;;67.65;34.25;;;2.40;99.90;;;;;;5075343;28;20214;-66
2022/01/26 00:52:57;;;;;;;69.32;35.15;;;2.40;99.90;;;;;;5074582;28;20227;-66
2022/01/26 00:55:23;;;;;;;77.65;36.05;;;2.30;99.90;;;;;;5075214;28;20533;-66
2022/01/26 00:57:51;;;;;;;73.25;34.38;;;2.10;99.90;;;;;;5074969;28;20212;-66
2022/01/26 01:00:22;;;;;;;63.40;31.40;;;2.10;99.90;;;;;;5074535;28;20213;-65
2022/01/26 01:02:51;;;;;;;64.93;32.25;;;2.10;99.90;;;;;;5074569;28;20569;-65
2022/01/26 01:05:21;;;;;;;74.32;35.10;;;2.30;99.90;;;;;;5074951;28;20280;-66
2022/01/26 01:07:52;;;;;;;65.68;34.20;;;2.30;99.90;;;;;;5074638;28;20213;-66
2022/01/26 01:10:22;;;;;;;73.45;36.05;;;2.20;99.90;;;;;;5075022;28;20259;-65
2022/01/26 01:12:53;;;;;;;75.85;37.70;;;2.30;99.90;;;;;;5074810;28;20262;-66
2022/01/26 01:15:21;;;;;;;81.32;38.42;;;2.30;99.90;;;;;;5075025;28;20634;-66
2022/01/26 01:17:52;;;;;;;75.35;36.70;;;2.20;99.90;;;;;;5074838;28;20253;-66
2022/01/26 01:20:36;;;;;;;94.65;40.03;;;2.20;99.90;;;;;;5074335;28;20663;-65
2022/01/26 01:23:35;;;;;;;90.93;38.97;;;2.20;99.90;;;;;;5074557;28;20203;-66
2022/01/26 01:26:26;;;;;;;79.85;36.95;;;2.30;99.90;;;;;;5075255;28;20519;-66
2022/01/26 01:29:09;;;;;;;83.53;38.83;;;2.40;99.90;;;;;;5074599;28;20290;-66
2022/01/26 01:31:44;;;;;;;80.60;37.50;;;2.40;99.90;;;;;;5074629;28;20202;-66
2022/01/26 01:34:16;;;;;;;89.65;38.45;;;2.20;99.90;;;;;;5074149;28;20233;-66
2022/01/26 01:36:52;;;;;;;82.35;37.70;;;2.20;99.90;;;;;;5074348;28;20197;-65
2022/01/26 01:39:20;;;;;;;77.53;35.60;;;2.10;99.90;;;;;;5074539;28;20213;-66
2022/01/26 01:41:49;;;;;;;81.78;35.13;;;2.30;99.90;;;;;;5073912;28;20217;-65
2022/01/26 01:44:17;;;;;;;75.00;36.30;;;2.30;99.90;;;;;;5074154;28;20227;-65
2022/01/26 01:46:44;;;;;;;73.43;34.47;;;2.30;99.90;;;;;;5075661;28;20332;-66
2022/01/26 01:49:13;;;;;;;75.68;36.03;;;2.40;99.90;;;;;;5078447;28;20210;-66
2022/01/26 01:51:45;;;;;;;68.63;34.65;;;2.40;99.90;;;;;;5077799;28;20210;-65
2022/01/26 01:54:15;;;;;;;68.40;32.40;;;2.50;99.90;;;;;;5078157;28;20276;-65
2022/01/26 01:56:43;;;;;;;66.85;34.05;;;2.50;99.90;;;;;;5078199;28;20260;-65
2022/01/26 01:59:11;;;;;;;88.13;36.88;;;2.50;99.90;;;;;;5078290;28;20290;-65
2022/01/26 02:01:39;;;;;;;77.55;35.58;;;2.20;99.90;;;;;;5077092;28;20202;-65
2022/01/26 02:04:07;;;;;;;78.03;35.53;;;2.00;99.90;;;;;;5077562;28;20239;-65
2022/01/26 02:06:34;;;;;;;82.78;35.28;;;1.80;99.90;;;;;;5077479;28;20203;-65
2022/01/26 02:09:01;;;;;;;78.22;34.40;;;1.80;99.90;;;;;;5077682;28;20203;-65
2022/01/26 02:11:29;;;;;;;70.05;34.55;;;1.90;99.90;;;;;;5077552;28;20298;-65
2022/01/26 02:14:02;;;;;;;70.88;34.03;;;1.90;99.90;;;;;;5077695;28;20313;-65
2022/01/26 02:16:34;;;;;;;82.75;34.65;;;1.90;99.90;;;;;;5077659;28;20645;-65
2022/01/26 02:19:26;;;;;;;79.63;35.13;;;1.70;99.90;;;;;;5077605;28;20221;-65
2022/01/26 02:49:45;;;;;;;50.15;26.13;;;1.50;99.90;;;;;;5077555;28;20237;-65
2022/01/26 02:55:16;;;;;;;46.85;25.38;;;1.50;99.90;;;;;;5071757;28;20226;-65
2022/01/26 02:58:03;;;;;;;56.33;27.75;;;1.50;99.90;;;;;;5076288;28;20206;-65
2022/01/26 03:00:40;;;;;;;48.83;26.90;;;1.30;99.90;;;;;;5076427;28;20285;-65
2022/01/26 03:03:14;;;;;;;49.13;25.38;;;1.20;99.90;;;;;;5077349;28;20213;-65
2022/01/26 03:05:48;;;;;;;58.67;28.88;;;1.30;99.90;;;;;;5077837;28;20187;-65
2022/01/26 03:08:16;;;;;;;51.97;27.48;;;1.30;99.90;;;;;;5076979;28;20276;-65
2022/01/26 03:10:49;;;;;;;56.15;26.88;;;1.20;99.90;;;;;;5076809;28;20215;-65
2022/01/26 03:13:20;;;;;;;50.92;26.35;;;1.10;99.90;;;;;;5076969;28;20230;-65
2022/01/26 03:15:52;;;;;;;66.13;30.10;;;1.00;99.90;;;;;;5077298;28;20544;-65
2022/01/26 03:18:47;;;;;;;58.13;27.45;;;0.90;99.90;;;;;;5076621;28;20276;-65
2022/01/26 03:21:16;;;;;;;60.00;27.58;;;1.00;99.90;;;;;;5076111;28;20211;-65
2022/01/26 03:29:26;;;;;;;59.28;28.30;;;1.30;99.90;;;;;;5076243;28;20256;-65
2022/01/26 03:32:39;;;;;;;49.83;26.10;;;1.30;99.90;;;;;;5075935;28;20202;-65
2022/01/26 03:34:59;;;;;;;56.50;26.48;;;1.10;99.90;;;;;;5075487;28;20707;-66
2022/01/26 03:37:30;;;;;;;45.22;24.85;;;1.00;99.90;;;;;;5076490;28;20257;-65
2022/01/26 03:39:57;;;;;;;50.30;24.98;;;1.10;99.90;;;;;;5076010;28;20207;-65
2022/01/26 03:42:25;;;;;;;47.20;25.48;;;1.10;99.90;;;;;;5076208;28;20289;-65
2022/01/26 03:44:52;;;;;;;45.33;22.42;;;1.30;99.90;;;;;;5076369;28;20594;-65
2022/01/26 03:47:19;;;;;;;43.30;23.58;;;1.40;99.90;;;;;;5076253;28;20294;-66
2022/01/26 03:49:46;;;;;;;49.15;23.95;;;1.50;99.90;;;;;;5075943;28;20668;-65
2022/01/26 03:52:13;;;;;;;44.47;23.30;;;1.50;99.90;;;;;;5075709;28;20556;-66
2022/01/26 03:54:40;;;;;;;43.97;23.33;;;1.50;99.90;;;;;;5075810;28;20230;-65
2022/01/26 03:57:07;;;;;;;47.70;24.15;;;1.40;99.90;;;;;;5075931;28;20203;-65
2022/01/26 03:59:35;;;;;;;50.40;24.65;;;1.40;99.90;;;;;;5076016;28;20294;-65
2022/01/26 04:02:02;;;;;;;45.10;23.40;;;1.40;99.90;;;;;;5076195;28;20293;-66
2022/01/26 04:04:32;;;;;;;47.22;24.70;;;1.50;99.90;;;;;;5075943;28;20219;-65
2022/01/26 04:07:01;;;;;;;49.30;21.83;;;1.50;99.90;;;;;;5076295;28;20206;-65
2022/01/26 04:09:28;;;;;;;46.05;23.52;;;1.30;99.90;;;;;;5075561;28;20210;-65
2022/01/26 04:11:55;;;;;;;47.45;23.38;;;1.30;99.90;;;;;;5075689;28;20203;-65
2022/01/26 04:14:26;;;;;;;40.58;22.10;;;1.40;99.90;;;;;;5075618;28;20653;-65
2022/01/26 04:16:54;;;;;;;38.70;22.20;;;1.40;99.90;;;;;;5076579;28;20195;-65
2022/01/26 04:19:22;;;;;;;48.67;22.58;;;1.50;99.90;;;;;;5075302;28;20301;-65
2022/01/26 04:22:09;;;;;;;50.35;25.55;;;1.60;99.90;;;;;;5075242;28;20202;-65
2022/01/26 04:24:39;;;;;;;46.10;23.00;;;1.70;99.90;;;;;;5075603;28;20225;-65
2022/01/26 04:27:15;;;;;;;44.45;22.70;;;1.50;99.90;;;;;;5075227;28;20202;-65
2022/01/26 04:29:42;;;;;;;48.20;24.67;;;1.50;99.90;;;;;;5075241;28;20207;-65
2022/01/26 04:32:13;;;;;;;49.65;23.80;;;1.50;99.90;;;;;;5075436;28;20203;-64
2022/01/26 04:34:40;;;;;;;42.03;22.38;;;1.70;99.90;;;;;;5075549;28;20723;-65
2022/01/26 04:37:15;;;;;;;42.70;21.55;;;1.90;99.90;;;;;;5075433;28;20210;-65
2022/01/26 04:39:47;;;;;;;45.30;22.67;;;2.00;99.90;;;;;;5075288;28;20241;-65
2022/01/26 04:42:18;;;;;;;48.78;24.17;;;2.00;99.90;;;;;;5074706;28;20232;-65
2022/01/26 04:44:50;;;;;;;41.85;22.90;;;2.00;99.90;;;;;;5075287;28;20276;-65
2022/01/26 04:47:19;;;;;;;47.55;22.77;;;2.10;99.90;;;;;;5075189;28;20203;-65
2022/01/26 04:49:45;;;;;;;43.15;23.05;;;2.20;99.90;;;;;;5074827;28;20202;-65
2022/01/26 04:52:12;;;;;;;44.08;22.65;;;2.20;99.90;;;;;;5075117;28;20289;-65
2022/01/26 04:54:39;;;;;;;46.03;24.45;;;2.20;99.90;;;;;;5074371;28;20227;-65
2022/01/26 04:57:06;;;;;;;43.40;22.88;;;2.30;99.90;;;;;;5074314;28;20199;-65
2022/01/26 04:59:33;;;;;;;42.88;21.38;;;2.30;99.90;;;;;;5074862;28;20209;-65
2022/01/26 05:02:00;;;;;;;44.85;22.50;;;2.40;99.90;;;;;;5074521;28;20289;-65
2022/01/26 05:04:28;;;;;;;39.80;22.60;;;2.40;99.90;;;;;;5074536;28;20219;-65
2022/01/26 05:06:55;;;;;;;42.47;21.85;;;2.40;99.90;;;;;;5074469;28;20199;-66
2022/01/26 05:09:22;;;;;;;42.67;21.73;;;2.50;99.90;;;;;;5074393;28;20198;-66
2022/01/26 05:11:52;;;;;;;40.58;21.90;;;2.50;99.90;;;;;;5074107;28;20232;-65
2022/01/26 05:14:19;;;;;;;44.50;21.23;;;2.50;99.90;;;;;;5074298;28;20234;-65
2022/01/26 05:16:46;;;;;;;42.38;21.63;;;2.30;99.90;;;;;;5074697;28;20204;-65
2022/01/26 05:19:13;;;;;;;43.15;22.35;;;2.20;99.90;;;;;;5073944;28;20595;-65
2022/01/26 05:21:42;;;;;;;48.80;22.42;;;2.30;99.90;;;;;;5073107;28;20745;-65
2022/01/26 05:24:10;;;;;;;43.22;22.42;;;2.20;99.90;;;;;;5073900;28;20227;-65
2022/01/26 05:26:37;;;;;;;41.08;22.15;;;2.30;99.90;;;;;;5073936;28;20206;-65
2022/01/26 05:29:04;;;;;;;45.63;21.50;;;2.30;99.90;;;;;;5074409;28;20549;-65
2022/01/26 05:31:31;;;;;;;43.30;21.38;;;2.30;99.90;;;;;;5074270;28;20237;-65
2022/01/26 05:33:58;;;;;;;45.60;23.02;;;2.10;99.90;;;;;;5074371;28;20233;-65
2022/01/26 05:36:25;;;;;;;46.60;22.58;;;2.00;99.90;;;;;;5074257;28;20202;-65
2022/01/26 05:38:54;;;;;;;50.03;23.15;;;2.00;99.90;;;;;;5074165;28;20225;-65
2022/01/26 05:41:20;;;;;;;44.42;23.48;;;2.00;99.90;;;;;;5073929;28;20206;-65
2022/01/26 05:43:47;;;;;;;52.88;23.60;;;1.90;99.90;;;;;;5073771;28;20218;-65
2022/01/26 05:46:20;;;;;;;50.60;24.10;;;1.80;99.90;;;;;;5073726;28;20234;-65
2022/01/26 05:48:48;;;;;;;52.90;22.30;;;1.70;99.90;;;;;;5073573;28;20293;-65
2022/01/26 05:51:16;;;;;;;52.00;24.20;;;1.70;99.90;;;;;;5073576;28;20275;-65
2022/01/26 05:53:43;;;;;;;46.08;22.67;;;1.70;99.90;;;;;;5073363;28;20241;-65
2022/01/26 05:56:11;;;;;;;45.30;22.73;;;1.80;99.90;;;;;;5074120;28;20202;-65
2022/01/26 05:58:38;;;;;;;52.63;23.88;;;1.90;99.90;;;;;;5073863;28;20211;-65
2022/01/26 06:01:05;;;;;;;43.50;22.00;;;2.00;99.90;;;;;;5073316;28;20210;-65
2022/01/26 06:03:32;;;;;;;49.08;23.50;;;2.10;99.90;;;;;;5073527;28;20573;-65
2022/01/26 06:06:00;;;;;;;47.40;24.52;;;2.10;99.90;;;;;;5073814;28;20203;-65
2022/01/26 06:08:27;;;;;;;47.92;24.70;;;1.90;99.90;;;;;;5073939;28;20289;-65
2022/01/26 06:10:56;;;;;;;49.28;24.02;;;2.00;99.90;;;;;;5073617;28;20217;-65
2022/01/26 06:13:24;;;;;;;48.58;24.48;;;2.10;99.90;;;;;;5074105;28;20735;-65
2022/01/26 06:15:51;;;;;;;48.05;23.65;;;2.20;99.90;;;;;;5073492;28;20195;-65
2022/01/26 06:18:18;;;;;;;45.22;22.67;;;2.20;99.90;;;;;;5073739;28;20238;-66
2022/01/26 06:20:45;;;;;;;46.63;22.45;;;2.30;99.90;;;;;;5073668;28;20203;-65
2022/01/26 06:23:12;;;;;;;42.95;23.60;;;2.30;99.90;;;;;;5073879;28;20205;-65
2022/01/26 06:25:39;;;;;;;48.00;22.83;;;2.50;99.90;;;;;;5073785;28;20205;-65
2022/01/26 06:28:11;;;;;;;41.60;22.05;;;2.50;99.90;;;;;;5074193;28;20556;-66
2022/01/26 06:30:39;;;;;;;44.80;22.90;;;2.40;99.90;;;;;;5073931;28;20639;-65
2022/01/26 06:33:08;;;;;;;45.38;24.35;;;2.40;99.90;;;;;;5074775;28;20207;-65
2022/01/26 06:35:41;;;;;;;46.45;23.63;;;2.40;99.90;;;;;;5077377;28;20314;-65
2022/01/26 06:38:08;;;;;;;37.75;22.35;;;2.20;99.90;;;;;;5077497;28;20668;-65
2022/01/26 06:40:35;;;;;;;42.60;21.50;;;2.20;99.90;;;;;;5077035;28;20209;-65
2022/01/26 06:43:07;;;;;;;44.60;22.40;;;2.30;99.90;;;;;;5076770;28;20707;-66
2022/01/26 06:45:38;;;;;;;42.03;21.90;;;2.40;99.90;;;;;;5077020;28;20190;-66
2022/01/26 06:48:37;;;;;;;43.13;23.40;;;2.40;99.90;;;;;;5077144;28;20245;-66
2022/01/26 06:51:01;;;;;;;48.92;25.98;;;2.40;99.90;;;;;;5076647;28;20264;-65
2022/01/26 06:53:29;;;;;;;45.95;21.38;;;2.30;99.90;;;;;;5076682;28;20313;-66
2022/01/26 06:55:56;;;;;;;40.15;21.15;;;2.30;99.90;;;;;;5076888;28;20223;-65
2022/01/26 06:58:23;;;;;;;43.20;22.95;;;2.30;99.90;;;;;;5077032;28;20210;-65
2022/01/26 07:00:50;;;;;;;40.92;20.00;;;2.30;99.90;;;;;;5076455;28;20199;-65
2022/01/26 07:03:19;;;;;;;42.97;22.58;;;2.30;99.90;;;;;;5077171;28;20199;-65
2022/01/26 07:05:46;;;;;;;39.90;21.92;;;2.20;99.90;;;;;;5077531;28;20286;-65
2022/01/26 07:08:14;;;;;;;43.90;22.08;;;2.20;99.90;;;;;;5076794;28;20234;-65
2022/01/26 07:10:41;;;;;;;40.90;21.90;;;2.20;99.90;;;;;;5076625;28;20209;-65
2022/01/26 07:13:08;;;;;;;42.22;21.65;;;2.30;99.90;;;;;;5076748;28;20293;-65
2022/01/26 07:21:28;;;;;;;41.58;21.40;;;2.20;99.90;;;;;;5014734;28;20193;-66
2022/01/26 07:23:56;;;;;;;39.90;21.08;;;2.20;99.90;;;;;;5014807;28;20266;-66
2022/01/26 07:26:26;;;;;;;38.17;21.85;;;2.20;99.90;;;;;;5046091;28;20213;-66
2022/01/26 07:28:53;;;;;;;36.45;20.38;;;2.30;99.90;;;;;;5076353;28;20202;-65
2022/01/26 07:31:20;;;;;;;38.88;22.00;;;2.30;99.90;;;;;;5076103;28;20241;-65
2022/01/26 07:33:53;;;;;;;37.53;20.98;;;2.20;99.90;;;;;;5075737;28;20305;-65
2022/01/26 07:36:20;;;;;;;42.17;21.55;;;2.30;99.90;;;;;;5076863;28;20187;-66
2022/01/26 07:38:49;;;;;;;40.15;20.65;;;2.30;99.90;;;;;;5076397;28;20209;-65
2022/01/26 07:41:16;;;;;;;39.45;21.17;;;2.50;99.90;;;;;;5075712;28;20210;-65
2022/01/26 07:43:43;;;;;;;34.42;19.15;;;2.40;99.90;;;;;;5075766;28;20302;-66
2022/01/26 07:46:10;;;;;;;36.05;19.95;;;2.50;99.90;;;;;;5075657;28;20205;-65
2022/01/26 07:48:36;;;;;;;43.55;21.52;;;2.50;99.90;;;;;;5075853;28;20209;-65
2022/01/26 07:51:05;;;;;;;34.38;20.30;;;2.40;99.90;;;;;;5075279;28;20202;-65
2022/01/26 07:53:32;;;;;;;41.33;21.90;;;2.40;99.90;;;;;;5075694;28;20219;-65
2022/01/26 07:55:59;;;;;;;36.63;22.10;;;2.30;99.90;;;;;;5075202;28;20681;-65
2022/01/26 07:58:26;;;;;;;39.70;20.52;;;2.20;99.90;;;;;;5075479;28;20688;-65
2022/01/26 08:00:53;;;;;;;36.60;18.00;;;2.30;99.90;;;;;;5075230;28;20665;-65
2022/01/26 08:03:20;;;;;;;39.95;20.13;;;2.20;99.90;;;;;;5075741;28;20212;-65
2022/01/26 08:05:46;;;;;;;39.20;21.48;;;2.10;99.90;;;;;;5076582;28;20290;-66
2022/01/26 08:08:14;;;;;;;39.42;21.45;;;2.30;99.90;;;;;;5076171;28;20230;-65
2022/01/26 08:10:41;;;;;;;37.92;22.05;;;2.30;99.90;;;;;;5075969;28;20209;-65
2022/01/26 08:13:08;;;;;;;45.05;23.83;;;2.10;99.90;;;;;;5075247;28;20671;-65
2022/01/26 08:15:35;;;;;;;43.42;23.15;;;1.80;99.90;;;;;;5075884;28;20313;-65
2022/01/26 08:18:05;;;;;;;43.17;22.20;;;1.80;99.90;;;;;;5075024;28;20301;-65
2022/01/26 08:20:32;;;;;;;46.40;22.67;;;1.80;99.90;;;;;;5074957;28;20301;-65
2022/01/26 08:22:59;;;;;;;43.05;21.88;;;1.80;99.90;;;;;;5072247;28;20199;-66
2022/01/26 08:25:29;;;;;;;42.10;21.75;;;2.00;99.90;;;;;;5062780;28;20298;-66
2022/01/26 08:28:02;;;;;;;41.30;23.35;;;2.00;99.90;;;;;;5054012;28;20868;-65
2022/01/26 08:30:31;;;;;;;48.50;23.90;;;2.10;99.90;;;;;;5053709;28;20207;-65
2022/01/26 08:32:58;;;;;;;48.17;23.85;;;2.20;99.90;;;;;;5053858;28;20211;-66
2022/01/26 08:35:25;;;;;;;42.92;22.60;;;2.20;99.90;;;;;;5053084;28;20235;-65
2022/01/26 08:37:52;;;;;;;45.85;22.60;;;2.10;99.90;;;;;;5053899;28;20209;-65
2022/01/26 08:40:19;;;;;;;42.63;22.75;;;2.20;99.90;;;;;;5053308;28;20208;-66
2022/01/26 08:42:47;;;;;;;43.35;21.83;;;2.00;99.90;;;;;;5053920;28;20203;-66
2022/01/26 08:45:15;;;;;;;39.85;22.95;;;2.00;99.90;;;;;;5053154;28;20223;-65
2022/01/26 08:47:42;;;;;;;41.45;22.40;;;2.10;99.90;;;;;;5052890;28;20214;-65
2022/01/26 08:50:09;;;;;;;40.58;22.17;;;2.20;99.90;;;;;;5053800;28;20584;-66
2022/01/26 08:52:38;;;;;;;41.72;21.27;;;2.30;99.90;;;;;;5053899;28;20210;-65
2022/01/26 08:55:06;;;;;;;41.90;22.55;;;2.40;99.90;;;;;;5053522;28;20693;-65
2022/01/26 08:57:32;;;;;;;37.20;21.50;;;2.40;99.90;;;;;;5052745;28;20207;-65
2022/01/26 09:00:01;;;;;;;43.20;22.30;;;2.50;99.90;;;;;;5053281;28;20207;-67
2022/01/26 09:02:27;;;;;;;41.60;22.00;;;2.50;99.90;;;;;;5053049;28;20298;-67
2022/01/26 09:04:54;;;;;;;44.13;23.05;;;2.50;99.90;;;;;;5054041;28;20314;-66
2022/01/26 09:07:21;;;;;;;44.03;23.40;;;2.40;99.90;;;;;;5054753;28;20298;-66
2022/01/26 09:09:48;;;;;;;46.03;23.30;;;2.30;99.90;;;;;;5054583;28;20203;-66
2022/01/26 09:12:17;;;;;;;39.20;21.50;;;2.30;99.90;;;;;;5054988;28;20565;-66
2022/01/26 09:14:46;;;;;;;45.65;21.90;;;2.40;99.90;;;;;;5054816;28;20224;-66
2022/01/26 09:17:14;;;;;;;44.92;22.58;;;2.40;99.90;;;;;;5054518;28;20286;-66
2022/01/26 09:19:43;;;;;;;48.40;23.40;;;2.40;99.90;;;;;;5054861;28;20207;-66
2022/01/26 09:22:11;;;;;;;44.70;22.13;;;2.40;99.90;;;;;;5054376;28;20257;-66
2022/01/26 09:24:40;;;;;;;45.78;20.90;;;2.30;99.90;;;;;;5054646;28;20223;-66
2022/01/26 09:27:12;;;;;;;47.00;23.75;;;2.20;99.90;;;;;;5054947;28;20209;-66
2022/01/26 09:29:39;;;;;;;48.92;25.00;;;2.10;99.90;;;;;;5054079;28;20661;-66
2022/01/26 09:32:07;;;;;;;48.60;22.35;;;1.80;99.90;;;;;;5054326;28;20523;-66
2022/01/26 09:34:37;;;;;;;45.17;24.23;;;1.80;99.90;;;;;;5054509;28;20224;-66
2022/01/26 09:37:05;;;;;;;39.95;20.60;;;1.90;99.90;;;;;;5054686;28;20210;-66
2022/01/26 09:39:32;;;;;;;41.78;21.77;;;1.90;99.90;;;;;;5054707;28;20229;-66
2022/01/26 09:41:59;;;;;;;42.58;22.20;;;2.10;99.90;;;;;;5054429;28;20555;-66
2022/01/26 09:44:26;;;;;;;45.90;22.58;;;2.20;99.90;;;;;;5054063;28;20226;-66
2022/01/26 09:46:53;;;;;;;37.00;20.23;;;2.30;99.90;;;;;;5054407;28;20199;-66
2022/01/26 09:49:20;;;;;;;39.53;20.83;;;2.50;99.90;;;;;;5054443;28;20225;-66
2022/01/26 09:51:51;;;;;;;38.10;20.75;;;2.50;99.90;;;;;;5054501;28;20207;-65
2022/01/26 09:54:20;;;;;;;39.03;20.83;;;2.50;99.90;;;;;;5054469;28;20552;-66
2022/01/26 09:56:49;;;;;;;45.15;23.65;;;2.60;99.90;;;;;;5054025;28;20741;-66
2022/01/26 09:59:17;;;;;;;36.03;20.20;;;2.60;99.90;;;;;;5054268;28;20203;-66
2022/01/26 10:01:46;;;;;;;33.22;18.48;;;2.60;99.90;;;;;;5053914;28;20199;-66
2022/01/26 10:04:24;;;;;;;38.13;19.45;;;2.80;99.90;;;;;;5054412;28;20222;-66
2022/01/26 10:07:12;;;;;;;38.30;21.30;;;2.80;99.90;;;;;;5054707;28;20203;-66
2022/01/26 10:09:47;;;;;;;38.65;19.65;;;2.80;99.90;;;;;;5057708;28;20214;-66
2022/01/26 10:17:45;;;;;;;32.25;18.55;;;2.80;99.90;;;;;;5058021;28;20270;-66
2022/01/26 10:20:15;;;;;;;34.10;18.50;;;2.90;99.90;;;;;;5057101;28;20239;-66
2022/01/26 10:22:44;;;;;;;34.88;19.50;;;3.00;99.90;;;;;;5057611;28;20211;-66
2022/01/26 10:25:13;;;;;;;37.03;18.60;;;2.90;99.90;;;;;;5057764;28;20565;-66
2022/01/26 10:27:42;;;;;;;32.70;17.95;;;3.00;99.90;;;;;;5057668;28;20295;-66
2022/01/26 10:30:12;;;;;;;36.20;20.63;;;3.10;99.90;;;;;;5057328;28;20200;-66
2022/01/26 10:32:40;;;;;;;32.47;18.02;;;3.20;99.90;;;;;;5057296;28;20284;-66
2022/01/26 10:35:08;;;;;;;31.83;16.88;;;3.20;99.90;;;;;;5057659;28;20270;-67
2022/01/26 10:37:35;;;;;;;37.28;20.00;;;3.30;99.90;;;;;;5057905;28;20203;-67
2022/01/26 10:40:18;;;;;;;36.55;19.55;;;3.40;99.90;;;;;;5057494;28;20203;-66
2022/01/26 10:43:00;;;;;;;37.63;19.08;;;3.40;99.90;;;;;;5057572;28;20215;-67
2022/01/26 10:45:33;;;;;;;33.63;18.63;;;3.50;99.90;;;;;;5057022;28;20238;-66
2022/01/26 10:48:18;;;;;;;37.35;19.40;;;3.40;99.90;;;;;;5056803;28;20207;-66
2022/01/26 10:51:08;;;;;;;41.65;21.13;;;3.50;99.90;;;;;;5057156;28;20203;-66
2022/01/26 10:53:40;;;;;;;32.53;18.75;;;3.50;99.90;;;;;;5057229;28;20223;-67
2022/01/26 10:56:08;;;;;;;35.42;19.02;;;3.50;99.90;;;;;;5057640;28;20261;-67
2022/01/26 10:58:36;;;;;;;33.25;19.50;;;3.60;99.90;;;;;;5057472;28;20212;-67
2022/01/26 11:01:04;;;;;;;33.65;19.10;;;3.40;99.90;;;;;;5056516;28;20684;-67
2022/01/26 11:03:31;;;;;;;36.40;20.05;;;3.30;99.90;;;;;;5057116;28;20314;-67
2022/01/26 11:05:58;;;;;;;35.55;17.95;;;3.10;99.90;;;;;;5057154;28;20294;-67
2022/01/26 11:08:26;;;;;;;33.17;18.83;;;3.20;99.90;;;;;;5057171;28;20206;-67
2022/01/26 11:10:53;;;;;;;37.28;19.40;;;3.30;99.90;;;;;;5056573;28;20199;-67
2022/01/26 11:13:30;;;;;;;34.33;19.20;;;3.30;99.90;;;;;;5056630;28;20658;-67
2022/01/26 11:16:08;;;;;;;39.85;21.00;;;3.20;99.90;;;;;;5056884;28;20207;-67
2022/01/26 11:18:49;;;;;;;37.53;20.48;;;2.90;99.90;;;;;;5056939;28;20214;-67
2022/01/26 11:21:30;;;;;;;35.05;19.10;;;2.50;99.90;;;;;;5056429;28;20294;-66
2022/01/26 11:24:09;;;;;;;35.67;20.40;;;2.50;99.90;;;;;;5057100;28;20250;-66
2022/01/26 11:26:38;;;;;;;40.83;21.33;;;2.50;99.90;;;;;;5056995;28;20195;-67
2022/01/26 11:29:25;;;;;;;46.05;22.27;;;2.30;99.90;;;;;;5057168;28;20207;-66
2022/01/26 11:32:08;;;;;;;37.15;18.67;;;2.30;99.90;;;;;;5057305;28;20306;-66
2022/01/26 11:34:35;;;;;;;38.45;19.98;;;2.40;99.90;;;;;;5057143;28;20288;-67
2022/01/26 11:37:05;;;;;;;39.65;21.00;;;2.50;99.90;;;;;;5056807;28;20271;-67
2022/01/26 11:45:23;;;;;;;45.45;22.27;;;2.70;99.90;;;;;;5056140;28;20215;-67
2022/01/26 11:48:00;;;;;;;40.55;21.45;;;2.70;99.90;;;;;;5057039;28;20234;-66
2022/01/26 11:50:28;;;;;;;42.83;20.85;;;2.50;99.90;;;;;;5056554;28;20207;-66
2022/01/26 11:53:00;;;;;;;48.72;21.90;;;2.50;99.90;;;;;;5056882;28;20207;-67
2022/01/26 11:55:32;;;;;;;51.90;23.10;;;2.30;99.90;;;;;;5056477;28;22202;-66
2022/01/26 11:58:11;;;;;;;53.20;23.70;;;1.80;99.90;;;;;;5056797;28;20215;-66
2022/01/26 12:00:55;;;;;;;48.55;22.35;;;1.70;99.90;;;;;;5056117;28;20289;-66
2022/01/26 12:03:28;;;;;;;49.53;23.17;;;1.90;99.90;;;;;;5056724;28;20223;-66
2022/01/26 12:05:58;;;;;;;46.35;21.95;;;1.80;99.90;;;;;;5056566;28;20270;-67
2022/01/26 12:08:36;;;;;;;54.58;22.60;;;1.60;99.90;;;;;;5056420;28;20210;-66
2022/01/26 12:11:05;;;;;;;45.15;20.83;;;1.70;99.90;;;;;;5055976;28;20194;-66
2022/01/26 12:13:33;;;;;;;43.65;21.23;;;1.70;99.90;;;;;;5055996;28;20705;-66
2022/01/26 12:16:08;;;;;;;49.63;24.65;;;1.90;99.90;;;;;;5055437;28;20251;-66
2022/01/26 12:18:40;;;;;;;45.92;21.45;;;1.80;99.90;;;;;;5056047;28;20277;-66
2022/01/26 12:35:18;;;;;;;40.25;17.90;;;2.10;99.90;;;;;;5033464;28;20281;-66
2022/01/26 12:38:03;;;;;;;42.15;19.23;;;2.10;99.90;;;;;;5055444;28;20653;-66
2022/01/26 12:43:20;;;;;;;41.60;21.02;;;2.20;99.90;;;;;;5055672;28;20234;-66
2022/01/26 12:45:48;;;;;;;42.95;20.83;;;2.20;99.90;;;;;;5055314;28;20196;-66
2022/01/26 12:48:18;;;;;;;41.40;20.98;;;2.10;99.90;;;;;;5055546;28;20213;-67
2022/01/26 12:50:46;;;;;;;40.47;20.63;;;2.00;99.90;;;;;;5055560;28;20209;-66
2022/01/26 12:53:13;;;;;;;39.20;20.20;;;2.10;99.90;;;;;;5055760;28;20546;-67
2022/01/26 12:55:40;;;;;;;39.05;21.17;;;2.30;99.90;;;;;;5054817;28;20238;-66
2022/01/26 12:58:07;;;;;;;37.65;19.20;;;2.40;99.90;;;;;;5055458;28;20294;-66
2022/01/26 13:00:43;;;;;;;43.25;19.67;;;1.90;99.90;;;;;;5055261;28;20206;-66
2022/01/26 13:03:12;;;;;;;40.75;19.80;;;1.90;99.90;;;;;;5054730;28;20289;-66
2022/01/26 13:05:40;;;;;;;36.90;19.75;;;2.10;99.90;;;;;;5055601;28;20221;-67
2022/01/26 13:08:08;;;;;;;36.08;18.50;;;2.20;99.90;;;;;;5055212;28;20214;-66
2022/01/26 13:10:35;;;;;;;34.08;18.05;;;2.30;99.90;;;;;;5054543;28;20646;-67
2022/01/26 13:13:13;;;;;;;36.95;18.75;;;2.40;99.90;;;;;;5055140;28;20208;-67
2022/01/26 13:15:47;;;;;;;34.63;18.92;;;2.40;99.90;;;;;;5055959;28;20203;-67
2022/01/26 13:18:25;;;;;;;37.60;18.70;;;2.40;99.90;;;;;;5054786;28;20252;-67
2022/01/26 13:23:52;;;;;;;40.13;18.70;;;2.30;99.90;;;;;;5051109;28;20223;-67
2022/01/26 13:26:30;;;;;;;39.55;19.42;;;2.40;99.90;;;;;;5055041;28;20184;-66
2022/01/26 13:29:15;;;;;;;37.70;19.50;;;2.50;99.90;;;;;;5055014;28;20204;-66
2022/01/26 13:32:14;;;;;;;35.97;18.80;;;2.70;99.90;;;;;;5054767;28;20245;-66
2022/01/26 13:37:33;;;;;;;38.70;20.92;;;2.70;99.90;;;;;;5054756;28;20569;-66
2022/01/26 13:40:15;;;;;;;37.95;20.05;;;2.50;99.90;;;;;;5054402;28;20670;-66
2022/01/26 13:43:16;;;;;;;40.05;20.52;;;2.20;99.90;;;;;;5054050;28;20546;-67
2022/01/26 13:46:17;;;;;;;39.63;20.20;;;2.10;99.90;;;;;;5054475;28;20697;-67
2022/01/26 13:51:38;;;;;;;45.85;21.05;;;1.60;99.90;;;;;;5055195;28;20201;-66
2022/01/26 13:54:31;;;;;;;47.35;21.77;;;1.40;99.90;;;;;;5055160;28;20223;-66
2022/01/26 13:57:12;;;;;;;41.88;21.25;;;1.50;99.90;;;;;;5054558;28;20266;-66
2022/01/26 13:59:45;;;;;;;39.40;18.38;;;1.70;99.90;;;;;;5054945;28;20207;-66
2022/01/26 14:02:12;;;;;;;41.58;18.40;;;1.80;99.90;;;;;;5054941;28;20213;-66
2022/01/26 14:04:39;;;;;;;37.17;18.25;;;1.90;99.90;;;;;;5054309;28;20227;-66
2022/01/26 14:07:07;;;;;;;40.92;19.35;;;2.00;99.90;;;;;;5054373;28;20242;-66
2022/01/26 14:09:36;;;;;;;37.65;18.85;;;2.00;99.90;;;;;;5054799;28;20210;-67
2022/01/26 14:12:03;;;;;;;38.25;18.77;;;2.00;99.90;;;;;;5054399;28;20646;-66
2022/01/26 14:14:34;;;;;;;38.35;19.90;;;1.90;99.90;;;;;;5054399;28;20315;-67
2022/01/26 14:17:03;;;;;;;36.20;19.55;;;1.90;99.90;;;;;;5054140;28;20308;-67
2022/01/26 14:19:38;;;;;;;38.90;17.77;;;1.80;99.90;;;;;;5054862;28;20528;-66
2022/01/26 14:22:29;;;;;;;39.50;18.50;;;1.70;99.90;;;;;;5055014;28;20588;-67
2022/01/26 14:25:14;;;;;;;30.85;17.35;;;1.70;99.90;;;;;;5054958;28;20743;-66
2022/01/26 14:27:44;;;;;;;34.53;16.98;;;1.40;99.90;;;;;;5054735;28;20211;-66
2022/01/26 14:30:26;;;;;;;34.50;17.45;;;1.40;99.90;;;;;;5054201;28;20204;-66